createdAt,value
2017-10-07T00:00:06.903Z,100957.81
2017-10-07T00:02:36.110Z,100957.97
2017-10-07T00:05:06.120Z,100957.25
2017-10-07T00:07:35.326Z,100957.72
2017-10-07T00:10:04.556Z,100956.72
2017-10-07T00:12:35.296Z,100950.83
2017-10-07T00:15:04.515Z,100952.30
2017-10-07T00:17:34.534Z,100956.02
2017-10-07T00:20:03.743Z,100951.17
2017-10-07T00:22:32.980Z,100945.73
2017-10-07T00:25:02.198Z,100947.25
2017-10-07T00:27:31.430Z,100942.20
2017-10-07T00:30:01.404Z,100931.44
2017-10-07T00:32:30.722Z,100935.69
2017-10-07T00:35:00.705Z,100932.92
2017-10-07T00:37:29.935Z,100923.28
2017-10-07T00:39:59.151Z,100923.07
2017-10-07T00:42:29.119Z,100928.44
2017-10-07T00:44:58.354Z,100918.19
2017-10-07T00:47:28.327Z,100917.91
2017-10-07T00:49:57.567Z,100909.42
2017-10-07T00:52:27.542Z,100921.50
2017-10-07T00:54:56.771Z,100913.25
2017-10-07T00:57:25.987Z,100913.02
2017-10-07T00:59:55.951Z,100911.98
2017-10-07T01:02:25.955Z,100914.31
2017-10-07T01:04:55.163Z,100908.70
2017-10-07T01:07:24.395Z,100911.42
2017-10-07T01:09:54.474Z,100902.25
2017-10-07T01:12:23.676Z,100904.77
2017-10-07T01:14:52.888Z,100902.38
2017-10-07T01:17:22.118Z,100898.89
2017-10-07T01:19:52.211Z,100894.77
2017-10-07T01:22:21.436Z,100886.92
2017-10-07T01:24:51.416Z,100885.64
2017-10-07T01:27:20.653Z,100889.73
2017-10-07T01:29:50.643Z,100890.28
2017-10-07T01:32:19.842Z,100881.89
2017-10-07T01:34:49.078Z,100882.56
2017-10-07T01:37:18.291Z,100870.08
2017-10-07T01:39:47.518Z,100868.72
2017-10-07T01:42:16.746Z,100870.27
2017-10-07T01:44:46.732Z,100874.31
2017-10-07T01:47:15.944Z,100870.80
2017-10-07T01:49:45.191Z,100861.52
2017-10-07T01:52:14.443Z,100862.79
2017-10-07T01:54:43.658Z,100861.27
2017-10-07T01:57:13.661Z,100861.27
2017-10-07T01:59:42.867Z,100855.10
2017-10-07T02:02:12.861Z,100854.70
2017-10-07T02:04:42.109Z,100852.27
2017-10-07T02:07:11.311Z,100850.28
2017-10-07T02:09:40.523Z,100859.44
2017-10-07T02:12:09.728Z,100858.12
2017-10-07T02:14:38.962Z,100863.40
2017-10-07T02:17:08.190Z,100863.67
2017-10-07T02:19:37.402Z,100868.80
2017-10-07T02:22:06.622Z,100856.31
2017-10-07T02:24:36.603Z,100852.19
2017-10-07T02:27:05.839Z,100859.22
2017-10-07T02:29:35.054Z,100857.16
2017-10-07T02:32:04.284Z,100857.59
2017-10-07T02:34:34.287Z,100845.86
2017-10-07T02:37:03.485Z,100850.03
2017-10-07T02:39:33.481Z,100846.42
2017-10-07T02:42:02.731Z,100845.70
2017-10-07T02:44:31.961Z,100843.52
2017-10-07T02:47:01.205Z,100835.05
2017-10-07T02:49:31.190Z,100831.56
2017-10-07T02:52:01.191Z,100831.55
2017-10-07T02:54:30.460Z,100828.75
2017-10-07T02:56:59.707Z,100824.16
2017-10-07T02:59:28.929Z,100821.19
2017-10-07T03:01:58.936Z,100822.55
2017-10-07T03:04:28.138Z,100827.70
2017-10-07T03:06:58.118Z,100819.95
2017-10-07T03:09:27.314Z,100824.19
2017-10-07T03:11:56.546Z,100813.73
2017-10-07T03:14:26.519Z,100817.25
2017-10-07T03:16:56.550Z,100819.84
2017-10-07T03:19:25.760Z,100819.53
2017-10-07T03:21:54.963Z,100817.30
2017-10-07T03:24:24.954Z,100812.42
2017-10-07T03:26:54.159Z,100816.30
2017-10-07T03:29:23.383Z,100811.91
2017-10-07T03:31:53.367Z,100814.84
2017-10-07T03:34:22.588Z,100813.92
2017-10-07T03:36:51.799Z,100817.75
2017-10-07T03:39:21.797Z,100814.30
2017-10-07T03:41:51.002Z,100808.58
2017-10-07T03:44:21.012Z,100804.74
2017-10-07T03:46:50.231Z,100798.42
2017-10-07T03:49:20.201Z,100801.80
2017-10-07T03:51:50.187Z,100788.93
2017-10-07T03:54:19.426Z,100793.02
2017-10-07T03:56:48.643Z,100791.73
2017-10-07T03:59:17.843Z,100780.06
2017-10-07T04:01:47.847Z,100771.20
2017-10-07T04:04:17.066Z,100774.18
2017-10-07T04:06:47.073Z,100775.09
2017-10-07T04:09:16.265Z,100773.20
2017-10-07T04:11:45.475Z,100763.95
2017-10-07T04:14:15.456Z,100766.79
2017-10-07T04:16:44.651Z,100757.84
2017-10-07T04:19:13.892Z,100755.92
2017-10-07T04:21:43.875Z,100762.56
2017-10-07T04:24:13.115Z,100761.22
2017-10-07T04:26:42.313Z,100757.30
2017-10-07T04:29:11.520Z,100756.66
2017-10-07T04:31:40.814Z,100757.80
2017-10-07T04:34:10.029Z,100752.71
2017-10-07T04:36:39.243Z,100752.83
2017-10-07T04:39:08.440Z,100748.51
2017-10-07T04:41:37.694Z,100762.13
2017-10-07T04:44:06.909Z,100756.55
2017-10-07T04:46:36.147Z,100757.55
2017-10-07T04:49:05.335Z,100766.37
2017-10-07T04:51:34.560Z,100766.20
2017-10-07T04:54:04.543Z,100777.90
2017-10-07T04:56:33.755Z,100777.98
2017-10-07T04:59:02.964Z,100778.50
2017-10-07T05:01:32.166Z,100768.19
2017-10-07T05:04:01.387Z,100773.47
2017-10-07T05:06:31.349Z,100773.39
2017-10-07T05:09:00.599Z,100769.00
2017-10-07T05:11:30.567Z,100772.53
2017-10-07T05:13:59.783Z,100771.84
2017-10-07T05:16:29.151Z,100762.45
2017-10-07T05:18:58.338Z,100765.16
2017-10-07T05:21:27.563Z,100760.45
2017-10-07T05:23:56.771Z,100768.04
2017-10-07T05:26:26.110Z,100757.33
2017-10-07T05:28:55.331Z,100754.72
2017-10-07T05:31:24.587Z,100754.89
2017-10-07T05:33:53.783Z,100753.43
2017-10-07T05:36:23.757Z,100748.24
2017-10-07T05:38:52.970Z,100753.27
2017-10-07T05:41:22.179Z,100740.89
2017-10-07T05:43:51.403Z,100740.23
2017-10-07T05:46:20.703Z,100730.41
2017-10-07T05:48:50.780Z,100724.89
2017-10-07T05:51:19.983Z,100715.07
2017-10-07T05:53:49.228Z,100711.59
2017-10-07T05:56:18.502Z,100705.36
2017-10-07T05:58:48.661Z,100702.05
2017-10-07T06:01:18.592Z,100703.23
2017-10-07T06:03:47.819Z,100696.48
2017-10-07T06:06:17.095Z,100695.13
2017-10-07T06:08:46.345Z,100694.84
2017-10-07T06:11:16.318Z,100692.05
2017-10-07T06:13:45.519Z,100700.53
2017-10-07T06:16:14.772Z,100691.81
2017-10-07T06:18:44.006Z,100690.06
2017-10-07T06:21:13.223Z,100688.22
2017-10-07T06:23:42.443Z,100688.31
2017-10-07T06:26:12.422Z,100691.42
2017-10-07T06:28:41.623Z,100681.27
2017-10-07T06:31:10.852Z,100681.71
2017-10-07T06:33:40.852Z,100680.36
2017-10-07T06:36:10.054Z,100680.60
2017-10-07T06:38:39.252Z,100676.60
2017-10-07T06:41:09.227Z,100675.40
2017-10-07T06:43:38.527Z,100672.84
2017-10-07T06:46:07.708Z,100665.97
2017-10-07T06:48:37.664Z,100661.50
2017-10-07T06:51:07.063Z,100671.92
2017-10-07T06:53:36.339Z,100676.80
2017-10-07T06:56:05.570Z,100670.05
2017-10-07T06:58:34.800Z,100666.16
2017-10-07T07:01:04.360Z,100657.64
2017-10-07T07:03:33.572Z,100666.52
2017-10-07T07:06:02.766Z,100664.41
2017-10-07T07:08:31.995Z,100657.83
2017-10-07T07:11:01.206Z,100659.91
2017-10-07T07:13:30.428Z,100653.27
2017-10-07T07:15:59.658Z,100657.22
2017-10-07T07:18:28.860Z,100649.63
2017-10-07T07:20:58.067Z,100638.91
2017-10-07T07:23:28.066Z,100637.56
2017-10-07T07:25:57.283Z,100624.13
2017-10-07T07:28:27.275Z,100627.56
2017-10-07T07:30:56.528Z,100630.13
2017-10-07T07:33:25.763Z,100621.11
2017-10-07T07:35:55.003Z,100621.91
2017-10-07T07:38:24.211Z,100617.50
2017-10-07T07:40:53.459Z,100608.55
2017-10-07T07:43:22.685Z,100604.41
2017-10-07T07:45:52.694Z,100598.56
2017-10-07T07:48:22.675Z,100598.95
2017-10-07T07:50:51.916Z,100598.80
2017-10-07T07:53:21.901Z,100588.18
2017-10-07T07:55:51.143Z,100595.77
2017-10-07T07:58:20.368Z,100582.51
2017-10-07T08:00:49.601Z,100579.94
2017-10-07T08:03:18.823Z,100574.05
2017-10-07T08:05:48.801Z,100572.20
2017-10-07T08:08:18.012Z,100569.42
2017-10-07T08:10:47.248Z,100565.10
2017-10-07T08:13:16.493Z,100575.75
2017-10-07T08:15:45.727Z,100575.77
2017-10-07T08:18:14.936Z,100572.69
2017-10-07T08:20:44.940Z,100563.01
2017-10-07T08:23:15.013Z,100568.77
2017-10-07T08:25:45.017Z,100562.03
2017-10-07T08:28:14.218Z,100555.88
2017-10-07T08:30:43.467Z,100563.73
2017-10-07T08:33:13.524Z,100555.80
2017-10-07T08:35:42.781Z,100548.42
2017-10-07T08:38:12.030Z,100546.66
2017-10-07T08:40:41.260Z,100541.28
2017-10-07T08:43:10.488Z,100544.48
2017-10-07T08:45:39.729Z,100534.22
2017-10-07T08:48:08.983Z,100528.94
2017-10-07T08:50:38.965Z,100526.81
2017-10-07T08:53:08.176Z,100524.81
2017-10-07T08:55:37.402Z,100515.55
2017-10-07T08:58:06.634Z,100514.58
2017-10-07T09:00:35.861Z,100509.03
2017-10-07T09:03:05.107Z,100515.75
2017-10-07T09:05:34.327Z,100504.31
2017-10-07T09:08:03.524Z,100508.70
2017-10-07T09:10:32.740Z,100500.42
2017-10-07T09:13:02.042Z,100503.65
2017-10-07T09:15:31.291Z,100497.47
2017-10-07T09:18:01.287Z,100493.21
2017-10-07T09:20:31.275Z,100479.25
2017-10-07T09:23:00.503Z,100480.05
2017-10-07T09:25:30.493Z,100487.09
2017-10-07T09:27:59.714Z,100500.72
2017-10-07T09:30:29.733Z,100488.45
2017-10-07T09:32:59.738Z,100482.15
2017-10-07T09:35:29.751Z,100477.03
2017-10-07T09:37:59.795Z,100469.25
2017-10-07T09:40:29.041Z,100470.78
2017-10-07T09:42:58.249Z,100459.95
2017-10-07T09:45:27.477Z,100462.56
2017-10-07T09:47:56.971Z,100440.98
2017-10-07T09:50:26.214Z,100433.87
2017-10-07T09:52:55.525Z,100418.62
2017-10-07T09:55:24.755Z,100425.75
2017-10-07T09:57:53.963Z,100421.45
2017-10-07T10:00:23.971Z,100407.03
2017-10-07T10:02:53.674Z,100417.52
2017-10-07T10:05:25.626Z,100400.83
2017-10-07T10:07:55.033Z,100400.70
2017-10-07T10:10:26.239Z,100400.64
2017-10-07T10:12:55.617Z,100406.89
2017-10-07T10:15:25.908Z,100408.77
2017-10-07T10:17:55.159Z,100404.97
2017-10-07T10:20:24.434Z,100401.25
2017-10-07T10:22:53.672Z,100397.20
2017-10-07T10:25:22.914Z,100402.03
2017-10-07T10:27:52.957Z,100400.44
2017-10-07T10:30:22.196Z,100391.69
2017-10-07T10:32:51.433Z,100392.05
2017-10-07T10:35:21.455Z,100400.81
2017-10-07T10:37:51.428Z,100411.49
2017-10-07T10:40:20.683Z,100396.16
2017-10-07T10:42:49.935Z,100390.08
2017-10-07T10:45:19.146Z,100384.16
2017-10-07T10:47:48.385Z,100377.83
2017-10-07T10:50:17.603Z,100372.31
2017-10-07T10:52:46.859Z,100368.90
2017-10-07T10:55:16.880Z,100375.71
2017-10-07T10:57:46.114Z,100368.39
2017-10-07T11:00:15.379Z,100364.45
2017-10-07T11:02:44.690Z,100356.67
2017-10-07T11:05:13.926Z,100357.55
2017-10-07T11:07:43.170Z,100358.81
2017-10-07T11:10:12.440Z,100350.97
2017-10-07T11:12:41.671Z,100362.04
2017-10-07T11:15:10.935Z,100361.18
2017-10-07T11:17:40.164Z,100351.38
2017-10-07T11:20:10.185Z,100346.52
2017-10-07T11:22:39.429Z,100348.01
2017-10-07T11:25:08.654Z,100338.65
2017-10-07T11:27:37.843Z,100331.37
2017-10-07T11:30:07.258Z,100329.06
2017-10-07T11:32:37.244Z,100314.30
2017-10-07T11:35:06.473Z,100311.28
2017-10-07T11:37:35.674Z,100300.33
2017-10-07T11:40:05.724Z,100300.73
2017-10-07T11:42:35.032Z,100304.59
2017-10-07T11:45:04.235Z,100296.42
2017-10-07T11:47:33.467Z,100292.78
2017-10-07T11:50:02.728Z,100281.94
2017-10-07T11:52:31.962Z,100280.55
2017-10-07T11:55:01.196Z,100282.23
2017-10-07T11:57:30.405Z,100278.39
2017-10-07T11:59:59.648Z,100269.03
2017-10-07T12:02:28.908Z,100275.44
2017-10-07T12:04:58.169Z,100267.11
2017-10-07T12:07:27.375Z,100266.65
2017-10-07T12:09:56.655Z,100260.58
2017-10-07T12:12:25.851Z,100259.66
2017-10-07T12:14:55.088Z,100258.39
2017-10-07T12:17:24.331Z,100242.94
2017-10-07T12:19:53.559Z,100235.11
2017-10-07T12:22:23.539Z,100221.74
2017-10-07T12:24:52.783Z,100222.87
2017-10-07T12:27:22.002Z,100223.97
2017-10-07T12:29:51.265Z,100234.84
2017-10-07T12:32:21.259Z,100226.22
2017-10-07T12:34:50.588Z,100220.05
2017-10-07T12:37:19.868Z,100217.42
2017-10-07T12:39:49.075Z,100202.77
2017-10-07T12:42:18.290Z,100206.55
2017-10-07T12:44:48.406Z,100199.45
2017-10-07T12:47:17.587Z,100195.84
2017-10-07T12:49:46.868Z,100195.05
2017-10-07T12:52:16.097Z,100190.56
2017-10-07T12:54:46.106Z,100185.42
2017-10-07T12:57:15.339Z,100178.72
2017-10-07T12:59:44.543Z,100178.29
2017-10-07T13:02:13.799Z,100169.17
2017-10-07T13:04:43.015Z,100171.98
2017-10-07T13:07:12.250Z,100165.19
2017-10-07T13:09:41.497Z,100156.06
2017-10-07T13:12:11.487Z,100149.33
2017-10-07T13:14:40.735Z,100145.59
2017-10-07T13:17:10.006Z,100141.67
2017-10-07T13:19:39.268Z,100134.82
2017-10-07T13:22:08.917Z,100132.50
2017-10-07T13:24:39.689Z,100129.22
2017-10-07T13:27:08.912Z,100126.09
2017-10-07T13:29:38.895Z,100113.69
2017-10-07T13:32:08.143Z,100104.68
2017-10-07T13:34:37.364Z,100105.64
2017-10-07T13:37:06.617Z,100099.62
2017-10-07T13:39:35.855Z,100102.97
2017-10-07T13:42:05.073Z,100091.98
2017-10-07T13:44:34.344Z,100093.67
2017-10-07T13:47:04.384Z,100073.85
2017-10-07T13:49:33.646Z,100077.21
2017-10-07T13:52:02.865Z,100081.22
2017-10-07T13:54:32.908Z,100083.38
2017-10-07T13:57:02.116Z,100084.73
2017-10-07T13:59:31.345Z,100070.34
2017-10-07T14:02:01.338Z,100073.22
2017-10-07T14:04:30.584Z,100064.28
2017-10-07T14:07:00.607Z,100059.19
2017-10-07T14:09:30.691Z,100056.54
2017-10-07T14:11:59.965Z,100065.25
2017-10-07T14:14:29.193Z,100055.95
2017-10-07T14:16:58.442Z,100055.90
2017-10-07T14:19:27.661Z,100053.58
2017-10-07T14:21:56.911Z,100047.17
2017-10-07T14:24:26.186Z,100050.19
2017-10-07T14:26:55.411Z,100041.63
2017-10-07T14:29:25.467Z,100032.38
2017-10-07T14:31:54.733Z,100038.84
2017-10-07T14:34:24.723Z,100036.86
2017-10-07T14:36:53.994Z,100029.33
2017-10-07T14:39:23.273Z,100018.62
2017-10-07T14:41:52.658Z,100025.23
2017-10-07T14:44:21.924Z,100016.17
2017-10-07T14:46:51.289Z,100024.00
2017-10-07T14:49:20.500Z,100022.16
2017-10-07T14:51:49.745Z,100024.66
2017-10-07T14:54:19.747Z,100026.93
2017-10-07T14:56:49.762Z,100017.75
2017-10-07T14:59:18.989Z,100007.89
2017-10-07T15:01:48.219Z,100006.07
2017-10-07T15:04:17.518Z,99996.47
2017-10-07T15:06:46.712Z,99991.76
2017-10-07T15:09:15.997Z,99986.83
2017-10-07T15:11:45.206Z,99975.76
2017-10-07T15:14:14.444Z,99969.19
2017-10-07T15:16:43.679Z,99970.63
2017-10-07T15:19:12.915Z,99975.78
2017-10-07T15:21:42.989Z,99971.70
2017-10-07T15:24:12.240Z,99966.16
2017-10-07T15:26:41.498Z,99963.48
2017-10-07T15:29:10.703Z,99963.22
2017-10-07T15:31:39.950Z,99967.98
2017-10-07T15:34:09.197Z,99964.52
2017-10-07T15:36:38.439Z,99951.58
2017-10-07T15:39:07.708Z,99951.19
2017-10-07T15:41:36.941Z,99952.77
2017-10-07T15:44:06.199Z,99943.65
2017-10-07T15:46:35.431Z,99954.53
2017-10-07T15:49:04.664Z,99957.42
2017-10-07T15:51:33.896Z,99949.09
2017-10-07T15:54:03.134Z,99938.13
2017-10-07T15:56:32.370Z,99939.97
2017-10-07T15:59:01.636Z,99942.92
2017-10-07T16:01:30.846Z,99939.80
2017-10-07T16:04:00.134Z,99938.50
2017-10-07T16:06:29.378Z,99938.10
2017-10-07T16:08:58.679Z,99922.72
2017-10-07T16:11:27.939Z,99929.83
2017-10-07T16:13:57.947Z,99924.48
2017-10-07T16:16:27.182Z,99921.27
2017-10-07T16:18:56.415Z,99927.22
2017-10-07T16:21:25.692Z,99918.27
2017-10-07T16:23:54.919Z,99921.76
2017-10-07T16:26:24.195Z,99923.69
2017-10-07T16:28:53.390Z,99925.16
2017-10-07T16:31:22.678Z,99925.11
2017-10-07T16:33:52.686Z,99915.64
2017-10-07T16:36:21.914Z,99920.12
2017-10-07T16:38:51.164Z,99928.73
2017-10-07T16:41:20.407Z,99919.55
2017-10-07T16:43:49.649Z,99914.11
2017-10-07T16:46:19.634Z,99909.64
2017-10-07T16:48:49.826Z,99900.66
2017-10-07T16:51:19.072Z,99896.03
2017-10-07T16:53:48.311Z,99889.30
2017-10-07T16:56:17.540Z,99891.05
2017-10-07T16:58:46.757Z,99875.83
2017-10-07T17:01:15.973Z,99881.50
2017-10-07T17:03:45.233Z,99879.14
2017-10-07T17:06:15.212Z,99871.32
2017-10-07T17:08:44.447Z,99875.48
2017-10-07T17:11:14.439Z,99885.31
2017-10-07T17:13:44.045Z,99881.02
2017-10-07T17:16:13.236Z,99873.64
2017-10-07T17:18:42.455Z,99874.04
2017-10-07T17:21:11.684Z,99870.13
2017-10-07T17:23:40.881Z,99870.05
2017-10-07T17:26:10.896Z,99872.42
2017-10-07T17:28:40.149Z,99876.81
2017-10-07T17:31:10.219Z,99867.38
2017-10-07T17:33:40.161Z,99859.55
2017-10-07T17:36:09.417Z,99863.44
2017-10-07T17:38:38.728Z,99855.45
2017-10-07T17:41:07.943Z,99851.50
2017-10-07T17:43:37.246Z,99840.63
2017-10-07T17:46:07.416Z,99832.84
2017-10-07T17:48:36.651Z,99833.64
2017-10-07T17:51:06.799Z,99829.73
2017-10-07T17:53:36.063Z,99827.84
2017-10-07T17:56:05.314Z,99837.76
2017-10-07T17:58:34.546Z,99832.88
2017-10-07T18:01:03.810Z,99828.14
2017-10-07T18:03:33.048Z,99827.41
2017-10-07T18:06:02.317Z,99830.87
2017-10-07T18:08:31.545Z,99825.59
2017-10-07T18:11:00.768Z,99825.43
2017-10-07T18:13:30.858Z,99812.56
2017-10-07T18:16:00.083Z,99808.63
2017-10-07T18:18:30.109Z,99807.75
2017-10-07T18:20:59.415Z,99808.80
2017-10-07T18:23:28.696Z,99805.59
2017-10-07T18:25:58.815Z,99811.53
2017-10-07T18:28:29.011Z,99791.17
2017-10-07T18:30:58.249Z,99792.61
2017-10-07T18:33:27.475Z,99787.44
2017-10-07T18:35:56.810Z,99784.27
2017-10-07T18:38:26.041Z,99786.08
2017-10-07T18:40:56.239Z,99785.33
2017-10-07T18:43:26.280Z,99785.97
2017-10-07T18:45:55.499Z,99786.47
2017-10-07T18:48:24.704Z,99787.27
2017-10-07T18:50:54.700Z,99782.17
2017-10-07T18:53:24.682Z,99781.89
2017-10-07T18:55:54.699Z,99776.54
2017-10-07T18:58:23.924Z,99775.66
2017-10-07T19:00:53.159Z,99767.38
2017-10-07T19:03:22.429Z,99775.66
2017-10-07T19:05:51.640Z,99771.28
2017-10-07T19:08:20.898Z,99764.30
2017-10-07T19:10:50.899Z,99763.56
2017-10-07T19:13:20.148Z,99770.05
2017-10-07T19:15:49.450Z,99768.22
2017-10-07T19:18:18.658Z,99775.15
2017-10-07T19:20:48.002Z,99779.75
2017-10-07T19:23:17.202Z,99774.05
2017-10-07T19:25:47.217Z,99777.30
2017-10-07T19:28:17.209Z,99773.38
2017-10-07T19:30:47.268Z,99784.61
2017-10-07T19:33:16.569Z,99775.58
2017-10-07T19:35:45.869Z,99773.96
2017-10-07T19:38:15.839Z,99773.29
2017-10-07T19:40:45.086Z,99778.61
2017-10-07T19:43:14.318Z,99768.25
2017-10-07T19:45:43.543Z,99778.51
2017-10-07T19:48:12.759Z,99770.17
2017-10-07T19:50:42.888Z,99764.22
2017-10-07T19:53:12.204Z,99770.84
2017-10-07T19:55:41.443Z,99762.06
2017-10-07T19:58:10.737Z,99764.95
2017-10-07T20:00:40.025Z,99773.73
2017-10-07T20:03:09.258Z,99767.42
2017-10-07T20:05:38.676Z,99770.31
2017-10-07T20:08:08.680Z,99765.27
2017-10-07T20:10:37.959Z,99769.08
2017-10-07T20:13:07.189Z,99762.72
2017-10-07T20:15:37.228Z,99762.67
2017-10-07T20:18:06.573Z,99766.98
2017-10-07T20:20:37.031Z,99765.49
2017-10-07T20:23:09.232Z,99754.30
2017-10-07T20:25:38.464Z,99766.07
2017-10-07T20:28:07.714Z,99757.51
2017-10-07T20:30:37.729Z,99770.95
2017-10-07T20:33:06.927Z,99775.94
2017-10-07T20:35:36.198Z,99778.22
2017-10-07T20:38:05.372Z,99783.31
2017-10-07T20:40:34.579Z,99783.01
2017-10-07T20:43:03.833Z,99788.63
2017-10-07T20:45:33.024Z,99782.51
2017-10-07T20:48:02.242Z,99788.13
2017-10-07T20:50:32.231Z,99787.73
2017-10-07T20:53:02.227Z,99793.56
2017-10-07T20:55:32.229Z,99794.46
2017-10-07T20:58:01.521Z,99801.16
2017-10-07T21:00:30.816Z,99787.73
2017-10-07T21:03:00.073Z,99780.06
2017-10-07T21:05:29.319Z,99775.93
2017-10-07T21:07:58.548Z,99788.92
2017-10-07T21:10:27.802Z,99782.91
2017-10-07T21:12:57.078Z,99773.33
2017-10-07T21:15:26.305Z,99779.62
2017-10-07T21:17:55.541Z,99783.88
2017-10-07T21:20:25.029Z,99779.00
2017-10-07T21:22:55.019Z,99777.52
2017-10-07T21:25:24.383Z,99783.66
2017-10-07T21:27:53.729Z,99777.08
2017-10-07T21:30:22.979Z,99777.96
2017-10-07T21:32:52.244Z,99777.96
2017-10-07T21:35:22.262Z,99777.19
2017-10-07T21:37:51.534Z,99779.97
2017-10-07T21:40:20.726Z,99775.75
2017-10-07T21:42:49.999Z,99782.11
2017-10-07T21:45:19.274Z,99773.50
2017-10-07T21:47:48.538Z,99772.95
2017-10-07T21:50:17.755Z,99772.14
2017-10-07T21:52:47.771Z,99775.09
2017-10-07T21:55:17.769Z,99772.95
2017-10-07T21:57:47.014Z,99787.05
2017-10-07T22:00:16.255Z,99782.05
2017-10-07T22:02:45.482Z,99788.63
2017-10-07T22:05:15.485Z,99770.66
2017-10-07T22:07:45.005Z,99773.56
2017-10-07T22:10:14.988Z,99781.28
2017-10-07T22:12:44.218Z,99779.47
2017-10-07T22:15:14.227Z,99781.63
2017-10-07T22:17:44.213Z,99777.72
2017-10-07T22:20:13.436Z,99778.78
2017-10-07T22:22:42.747Z,99779.97
2017-10-07T22:25:14.158Z,99771.41
2017-10-07T22:27:45.289Z,99774.13
2017-10-07T22:30:14.527Z,99765.66
2017-10-07T22:32:44.608Z,99766.86
2017-10-07T22:35:13.857Z,99769.75
2017-10-07T22:37:43.849Z,99756.48
2017-10-07T22:40:13.095Z,99762.23
2017-10-07T22:42:42.382Z,99767.77
2017-10-07T22:45:12.511Z,99769.70
2017-10-07T22:47:42.592Z,99771.24
2017-10-07T22:50:12.583Z,99779.45
2017-10-07T22:52:41.816Z,99772.70
2017-10-07T22:55:11.061Z,99775.38
2017-10-07T22:57:40.310Z,99774.68
2017-10-07T23:00:10.351Z,99775.38
2017-10-07T23:02:39.591Z,99770.33
2017-10-07T23:05:09.061Z,99770.06
2017-10-07T23:07:39.038Z,99772.30
2017-10-07T23:10:09.034Z,99771.86
2017-10-07T23:12:38.354Z,99771.75
2017-10-07T23:15:08.356Z,99766.88
2017-10-07T23:17:37.609Z,99776.84
2017-10-07T23:20:06.821Z,99778.03
2017-10-07T23:22:36.080Z,99775.03
2017-10-07T23:25:05.312Z,99784.83
2017-10-07T23:27:35.387Z,99784.56
2017-10-07T23:30:04.675Z,99786.31
2017-10-07T23:32:34.698Z,99785.88
2017-10-07T23:35:04.721Z,99787.23
2017-10-07T23:37:33.964Z,99789.27
2017-10-07T23:40:03.245Z,99795.28
2017-10-07T23:42:32.459Z,99790.63
2017-10-07T23:45:01.681Z,99802.22
2017-10-07T23:47:30.917Z,99804.91
2017-10-07T23:50:00.159Z,99804.38
2017-10-07T23:52:29.378Z,99806.53
2017-10-07T23:54:58.637Z,99803.73
2017-10-07T23:57:27.890Z,99800.56
2017-10-07T23:59:57.914Z,99809.13
